GLO1851 SBCT-SBRJ
Flight info
| Callsign | GLO1851 |
|---|---|
| Flight time | N/A |
| Altitude | 35000 |
| Route | EDVE1A EDVEB UM548 KOXAG UM400 KOLBI DCT |
| Aircraft | B737/M-SDFGIKRWXY/EB1D1 |
Departure
| Time | N/A |
|---|---|
| Airport | Curitiba-Afonso Pena International Airport (SBCT) |
Arrival
| Time | 2026-04-28 03:57 |
|---|---|
| Airport | Santos Dumont Airport (SBRJ) |
| Time | Latitude | Longitude | Altitude | Speed | Heading |
|---|---|---|---|---|---|
| 2026-04-28 03:06 | -25.28696 | -47.76512 | 30610 ft | 502 kts | 75° |
| 2026-04-28 03:06 | -25.28010 | -47.72728 | 30970 ft | 504 kts | 75° |
| 2026-04-28 03:06 | -25.27324 | -47.68926 | 31293 ft | 506 kts | 75° |
| 2026-04-28 03:06 | -25.26637 | -47.65112 | 31647 ft | 506 kts | 75° |
| 2026-04-28 03:07 | -25.25949 | -47.61300 | 32082 ft | 505 kts | 74° |
| 2026-04-28 03:07 | -25.25261 | -47.57506 | 32577 ft | 502 kts | 74° |
| 2026-04-28 03:07 | -25.24567 | -47.53747 | 33044 ft | 499 kts | 74° |
| 2026-04-28 03:07 | -25.23882 | -47.49989 | 33421 ft | 499 kts | 74° |
| 2026-04-28 03:08 | -25.23202 | -47.46233 | 33709 ft | 499 kts | 74° |
| 2026-04-28 03:08 | -25.22744 | -47.43690 | 33911 ft | 500 kts | 74° |
| 2026-04-28 03:08 | -25.22053 | -47.39930 | 34254 ft | 500 kts | 74° |
| 2026-04-28 03:08 | -25.21366 | -47.36176 | 34622 ft | 499 kts | 73° |
| 2026-04-28 03:09 | -25.20681 | -47.32420 | 34917 ft | 499 kts | 73° |
| 2026-04-28 03:09 | -25.19992 | -47.28657 | 35050 ft | 503 kts | 73° |
| 2026-04-28 03:09 | -25.19293 | -47.24859 | 35039 ft | 505 kts | 73° |
| 2026-04-28 03:10 | -25.17948 | -47.17529 | 35013 ft | 500 kts | 73° |
| 2026-04-28 03:10 | -25.16870 | -47.11664 | 35042 ft | 498 kts | 73° |
| 2026-04-28 03:29 | -25.15477 | -47.04141 | 35043 ft | 498 kts | 73° |
| 2026-04-28 03:30 | -25.12802 | -46.93793 | 35004 ft | 486 kts | 57° |
| 2026-04-28 03:30 | -25.06630 | -46.80609 | 35053 ft | 485 kts | 56° |
| 2026-04-28 03:30 | -24.94685 | -46.53816 | 35048 ft | 487 kts | 57° |
| 2026-04-28 03:31 | -24.82690 | -46.27105 | 35042 ft | 486 kts | 57° |
| 2026-04-28 03:31 | -24.70680 | -46.00495 | 35031 ft | 484 kts | 57° |
| 2026-04-28 03:32 | -24.58677 | -45.74056 | 35035 ft | 482 kts | 57° |
| 2026-04-28 03:32 | -24.46660 | -45.47740 | 35049 ft | 481 kts | 57° |
| 2026-04-28 03:33 | -24.34633 | -45.21550 | 35027 ft | 479 kts | 57° |
| 2026-04-28 03:33 | -24.22614 | -44.95523 | 35042 ft | 478 kts | 57° |
| 2026-04-28 03:34 | -24.10555 | -44.69549 | 35034 ft | 479 kts | 57° |
| 2026-04-28 03:34 | -24.07115 | -44.61967 | 34512 ft | 486 kts | 58° |
| 2026-04-28 03:35 | -24.05618 | -44.58642 | 33874 ft | 487 kts | 58° |
| 2026-04-28 03:35 | -24.04119 | -44.55327 | 33186 ft | 485 kts | 58° |
| 2026-04-28 03:35 | -24.02633 | -44.52044 | 32681 ft | 479 kts | 58° |
| 2026-04-28 03:35 | -24.01187 | -44.48761 | 32147 ft | 477 kts | 59° |
| 2026-04-28 03:36 | -23.99753 | -44.45525 | 31635 ft | 469 kts | 57° |
| 2026-04-28 03:36 | -23.98268 | -44.42358 | 31144 ft | 466 kts | 57° |
| 2026-04-28 03:36 | -23.96785 | -44.39168 | 30632 ft | 463 kts | 57° |
| 2026-04-28 03:36 | -23.95365 | -44.36068 | 30127 ft | 461 kts | 57° |
| 2026-04-28 03:37 | -23.93916 | -44.32885 | 29314 ft | 463 kts | 57° |
| 2026-04-28 03:37 | -23.92264 | -44.29253 | 28407 ft | 465 kts | 58° |
| 2026-04-28 03:37 | -23.89380 | -44.22920 | 26951 ft | 466 kts | 58° |
| 2026-04-28 03:37 | -23.86543 | -44.16519 | 25560 ft | 468 kts | 59° |
| 2026-04-28 03:38 | -23.83768 | -44.10233 | 24949 ft | 450 kts | 59° |
| 2026-04-28 03:38 | -23.81013 | -44.06019 | 24256 ft | 424 kts | 32° |
| 2026-04-28 03:38 | -23.75859 | -44.03370 | 22799 ft | 404 kts | 5° |
| 2026-04-28 03:38 | -23.70371 | -44.02909 | 21561 ft | 391 kts | 358° |
| 2026-04-28 03:39 | -23.64969 | -44.02651 | 20327 ft | 386 kts | 359° |
| 2026-04-28 03:39 | -23.59626 | -44.02327 | 19199 ft | 381 kts | 359° |
| 2026-04-28 03:39 | -23.56777 | -44.02144 | 18606 ft | 378 kts | 360° |
| 2026-04-28 03:39 | -23.51564 | -44.01808 | 17396 ft | 373 kts | 0° |
| 2026-04-28 03:40 | -23.46408 | -44.01477 | 16234 ft | 367 kts | 0° |
| 2026-04-28 03:40 | -23.41343 | -44.01155 | 15105 ft | 363 kts | 0° |
| 2026-04-28 03:40 | -23.38026 | -44.00942 | 14383 ft | 359 kts | 1° |
| 2026-04-28 03:40 | -23.31400 | -44.00519 | 12876 ft | 353 kts | 1° |
| 2026-04-28 03:41 | -23.28114 | -44.00309 | 12150 ft | 348 kts | 1° |
| 2026-04-28 03:41 | -23.24292 | -44.00066 | 11270 ft | 345 kts | 1° |
| 2026-04-28 03:41 | -23.23079 | -43.99988 | 11006 ft | 343 kts | 1° |
| 2026-04-28 03:41 | -23.19783 | -43.99777 | 10287 ft | 340 kts | 1° |
| 2026-04-28 03:42 | -23.17480 | -43.99268 | 9702 ft | 342 kts | 22° |
| 2026-04-28 03:42 | -23.15520 | -43.97817 | 9188 ft | 342 kts | 43° |
| 2026-04-28 03:42 | -23.14156 | -43.95749 | 8982 ft | 331 kts | 61° |
| 2026-04-28 03:42 | -23.13173 | -43.93552 | 8859 ft | 317 kts | 64° |
| 2026-04-28 03:43 | -23.12279 | -43.91400 | 8596 ft | 308 kts | 65° |
| 2026-04-28 03:43 | -23.11414 | -43.89297 | 8351 ft | 303 kts | 65° |
| 2026-04-28 03:43 | -23.10553 | -43.87226 | 8134 ft | 297 kts | 64° |
| 2026-04-28 03:43 | -23.09714 | -43.85231 | 8052 ft | 284 kts | 64° |
| 2026-04-28 03:44 | -23.08900 | -43.83309 | 8042 ft | 277 kts | 64° |
| 2026-04-28 03:44 | -23.08393 | -43.82121 | 8049 ft | 277 kts | 64° |
| 2026-04-28 03:44 | -23.07291 | -43.79538 | 8049 ft | 277 kts | 64° |
| 2026-04-28 03:44 | -23.06442 | -43.77554 | 8044 ft | 277 kts | 64° |
| 2026-04-28 03:45 | -23.05370 | -43.75053 | 8048 ft | 277 kts | 64° |
| 2026-04-28 03:45 | -23.04557 | -43.73159 | 8051 ft | 277 kts | 64° |
| 2026-04-28 03:45 | -23.03743 | -43.71265 | 8050 ft | 277 kts | 64° |
| 2026-04-28 03:45 | -23.02927 | -43.69370 | 7993 ft | 279 kts | 63° |
| 2026-04-28 03:46 | -23.02086 | -43.67443 | 7716 ft | 283 kts | 63° |
| 2026-04-28 03:46 | -23.01247 | -43.65527 | 7447 ft | 278 kts | 63° |
| 2026-04-28 03:46 | -23.00414 | -43.63624 | 7185 ft | 273 kts | 63° |
| 2026-04-28 03:46 | -22.98317 | -43.58851 | 6660 ft | 256 kts | 64° |
| 2026-04-28 03:47 | -22.98002 | -43.58128 | 6589 ft | 253 kts | 63° |
| 2026-04-28 03:47 | -22.97455 | -43.56884 | 6497 ft | 247 kts | 63° |
| 2026-04-28 03:48 | -22.96727 | -43.55227 | 6356 ft | 239 kts | 63° |
| 2026-04-28 03:48 | -22.96022 | -43.53628 | 6202 ft | 231 kts | 63° |
| 2026-04-28 03:48 | -22.95559 | -43.52580 | 6140 ft | 232 kts | 63° |
| 2026-04-28 03:48 | -22.95297 | -43.51987 | 6099 ft | 233 kts | 64° |
| 2026-04-28 03:49 | -22.94612 | -43.50421 | 5965 ft | 229 kts | 64° |
| 2026-04-28 03:49 | -22.93952 | -43.48859 | 5735 ft | 225 kts | 65° |
| 2026-04-28 03:49 | -22.93459 | -43.47699 | 5538 ft | 222 kts | 65° |
| 2026-04-28 03:49 | -22.92824 | -43.46192 | 5295 ft | 215 kts | 65° |
| 2026-04-28 03:50 | -22.92207 | -43.44736 | 5071 ft | 209 kts | 65° |
| 2026-04-28 03:50 | -22.91610 | -43.43323 | 4854 ft | 203 kts | 65° |
| 2026-04-28 03:50 | -22.91037 | -43.41962 | 4648 ft | 194 kts | 65° |
| 2026-04-28 03:50 | -22.90490 | -43.40663 | 4437 ft | 185 kts | 66° |
| 2026-04-28 03:51 | -22.89968 | -43.39436 | 4231 ft | 178 kts | 65° |
| 2026-04-28 03:51 | -22.89464 | -43.38258 | 4061 ft | 177 kts | 66° |
| 2026-04-28 03:51 | -22.88949 | -43.37043 | 3874 ft | 178 kts | 66° |
| 2026-04-28 03:51 | -22.88435 | -43.35838 | 3690 ft | 174 kts | 66° |
| 2026-04-28 03:52 | -22.87991 | -43.34633 | 3491 ft | 170 kts | 71° |
| 2026-04-28 03:52 | -22.87611 | -43.33436 | 3319 ft | 166 kts | 72° |
| 2026-04-28 03:52 | -22.87233 | -43.32246 | 3160 ft | 167 kts | 71° |
| 2026-04-28 03:52 | -22.86847 | -43.31042 | 2982 ft | 170 kts | 71° |
| 2026-04-28 03:53 | -22.86461 | -43.29839 | 2711 ft | 170 kts | 71° |
| 2026-04-28 03:53 | -22.86061 | -43.28595 | 2381 ft | 170 kts | 73° |
| 2026-04-28 03:53 | -22.85700 | -43.27421 | 2136 ft | 160 kts | 73° |
| 2026-04-28 03:53 | -22.85470 | -43.26315 | 1886 ft | 145 kts | 102° |
| 2026-04-28 03:54 | -22.85659 | -43.25258 | 1782 ft | 141 kts | 100° |
| 2026-04-28 03:54 | -22.85800 | -43.24223 | 1646 ft | 138 kts | 100° |
| 2026-04-28 03:54 | -22.85938 | -43.23189 | 1458 ft | 138 kts | 99° |
| 2026-04-28 03:54 | -22.86020 | -43.22594 | 1360 ft | 136 kts | 99° |
| 2026-04-28 03:55 | -22.86067 | -43.22255 | 1314 ft | 135 kts | 99° |
| 2026-04-28 03:55 | -22.86208 | -43.21228 | 1158 ft | 139 kts | 99° |
| 2026-04-28 03:55 | -22.86353 | -43.20196 | 993 ft | 137 kts | 99° |
| 2026-04-28 03:55 | -22.86492 | -43.19185 | 862 ft | 135 kts | 101° |
| 2026-04-28 03:56 | -22.86632 | -43.18187 | 679 ft | 134 kts | 103° |
| 2026-04-28 03:56 | -22.86982 | -43.17312 | 660 ft | 128 kts | 128° |
| 2026-04-28 03:56 | -22.87643 | -43.16636 | 606 ft | 131 kts | 154° |
| 2026-04-28 03:56 | -22.88539 | -43.16455 | 457 ft | 132 kts | 177° |
| 2026-04-28 03:57 | -22.89422 | -43.16380 | 265 ft | 124 kts | 176° |
| 2026-04-28 03:57 | -22.90270 | -43.16331 | 83 ft | 121 kts | 177° |
| 2026-04-28 03:57 | -22.91040 | -43.16283 | 23 ft | 77 kts | 176° |
| 2026-04-28 03:57 | -22.91315 | -43.16273 | 19 ft | 19 kts | 200° |
| 2026-04-28 03:58 | -22.91346 | -43.16384 | 20 ft | 11 kts | 266° |
| 2026-04-28 03:58 | -22.91351 | -43.16468 | 21 ft | 11 kts | 268° |
| 2026-04-28 03:58 | -22.91298 | -43.16509 | 23 ft | 11 kts | 1° |
| 2026-04-28 03:58 | -22.91226 | -43.16510 | 21 ft | 10 kts | 351° |
| 2026-04-28 03:59 | -22.91187 | -43.16541 | 21 ft | 7 kts | 260° |
| 2026-04-28 03:59 | -22.91209 | -43.16573 | 24 ft | 2 kts | 254° |
| 2026-04-28 03:59 | -22.91209 | -43.16584 | 21 ft | 0 kts | 267° |